sensor_id;sensor_type;location;lat;lon;timestamp;P1;durP1;ratioP1;P2;durP2;ratioP2
80227;SDS011;69539;42.138;24.742;2023-07-31T00:01:45;3.95;;;2.10;;
80227;SDS011;69539;42.138;24.742;2023-07-31T00:04:11;3.45;;;2.10;;
80227;SDS011;69539;42.138;24.742;2023-07-31T00:06:36;2.35;;;1.88;;
80227;SDS011;69539;42.138;24.742;2023-07-31T00:09:02;4.85;;;2.20;;
80227;SDS011;69539;42.138;24.742;2023-07-31T00:11:27;2.65;;;2.10;;
80227;SDS011;69539;42.138;24.742;2023-07-31T00:13:53;3.75;;;2.10;;
80227;SDS011;69539;42.138;24.742;2023-07-31T00:16:19;4.15;;;2.20;;
80227;SDS011;69539;42.138;24.742;2023-07-31T00:18:45;5.57;;;1.98;;
80227;SDS011;69539;42.138;24.742;2023-07-31T00:21:10;2.20;;;2.00;;
80227;SDS011;69539;42.138;24.742;2023-07-31T00:23:36;2.58;;;2.08;;
80227;SDS011;69539;42.138;24.742;2023-07-31T00:26:02;4.13;;;2.22;;
80227;SDS011;69539;42.138;24.742;2023-07-31T00:28:27;3.72;;;1.95;;
80227;SDS011;69539;42.138;24.742;2023-07-31T00:30:53;3.50;;;2.08;;
80227;SDS011;69539;42.138;24.742;2023-07-31T00:33:19;2.60;;;2.28;;
80227;SDS011;69539;42.138;24.742;2023-07-31T00:35:45;2.60;;;2.17;;
80227;SDS011;69539;42.138;24.742;2023-07-31T00:38:10;2.97;;;2.10;;
80227;SDS011;69539;42.138;24.742;2023-07-31T00:40:36;2.38;;;2.20;;
80227;SDS011;69539;42.138;24.742;2023-07-31T00:43:02;4.20;;;2.25;;
80227;SDS011;69539;42.138;24.742;2023-07-31T00:45:28;2.83;;;2.25;;
80227;SDS011;69539;42.138;24.742;2023-07-31T00:47:54;4.10;;;2.10;;
80227;SDS011;69539;42.138;24.742;2023-07-31T00:50:22;3.55;;;2.20;;
80227;SDS011;69539;42.138;24.742;2023-07-31T00:52:49;4.60;;;2.20;;
80227;SDS011;69539;42.138;24.742;2023-07-31T00:55:15;3.97;;;2.50;;
80227;SDS011;69539;42.138;24.742;2023-07-31T00:57:41;4.97;;;2.30;;
80227;SDS011;69539;42.138;24.742;2023-07-31T01:00:07;3.33;;;2.35;;
80227;SDS011;69539;42.138;24.742;2023-07-31T01:02:34;2.85;;;2.30;;
80227;SDS011;69539;42.138;24.742;2023-07-31T01:05:01;2.83;;;2.00;;
80227;SDS011;69539;42.138;24.742;2023-07-31T01:12:30;2.30;;;2.10;;
80227;SDS011;69539;42.138;24.742;2023-07-31T01:15:06;3.35;;;2.60;;
80227;SDS011;69539;42.138;24.742;2023-07-31T01:17:36;5.93;;;2.33;;
80227;SDS011;69539;42.138;24.742;2023-07-31T01:20:10;2.45;;;2.13;;
80227;SDS011;69539;42.138;24.742;2023-07-31T01:28:32;5.28;;;3.17;;
80227;SDS011;69539;42.138;24.742;2023-07-31T01:31:05;5.20;;;3.35;;
80227;SDS011;69539;42.138;24.742;2023-07-31T01:33:34;5.95;;;3.80;;
80227;SDS011;69539;42.138;24.742;2023-07-31T01:36:01;5.20;;;3.53;;
80227;SDS011;69539;42.138;24.742;2023-07-31T01:38:27;6.10;;;3.70;;
80227;SDS011;69539;42.138;24.742;2023-07-31T01:40:53;5.95;;;3.88;;
80227;SDS011;69539;42.138;24.742;2023-07-31T01:43:19;4.65;;;3.65;;
80227;SDS011;69539;42.138;24.742;2023-07-31T01:45:45;6.38;;;3.80;;
80227;SDS011;69539;42.138;24.742;2023-07-31T01:48:11;3.88;;;3.25;;
80227;SDS011;69539;42.138;24.742;2023-07-31T01:50:36;6.22;;;3.65;;
80227;SDS011;69539;42.138;24.742;2023-07-31T01:53:02;5.28;;;3.67;;
80227;SDS011;69539;42.138;24.742;2023-07-31T01:55:27;5.93;;;3.95;;
80227;SDS011;69539;42.138;24.742;2023-07-31T01:57:53;6.85;;;4.28;;
80227;SDS011;69539;42.138;24.742;2023-07-31T02:00:19;6.65;;;4.47;;
80227;SDS011;69539;42.138;24.742;2023-07-31T02:02:44;8.18;;;5.05;;
80227;SDS011;69539;42.138;24.742;2023-07-31T02:05:10;7.50;;;5.05;;
80227;SDS011;69539;42.138;24.742;2023-07-31T02:07:36;10.68;;;6.95;;
80227;SDS011;69539;42.138;24.742;2023-07-31T02:10:01;11.30;;;8.30;;
80227;SDS011;69539;42.138;24.742;2023-07-31T02:12:27;10.93;;;8.57;;
80227;SDS011;69539;42.138;24.742;2023-07-31T02:14:56;10.60;;;7.97;;
80227;SDS011;69539;42.138;24.742;2023-07-31T02:17:21;9.10;;;7.05;;
80227;SDS011;69539;42.138;24.742;2023-07-31T02:19:47;10.55;;;6.47;;
80227;SDS011;69539;42.138;24.742;2023-07-31T02:22:13;11.10;;;5.68;;
80227;SDS011;69539;42.138;24.742;2023-07-31T02:24:38;8.30;;;5.10;;
80227;SDS011;69539;42.138;24.742;2023-07-31T02:27:04;6.15;;;4.50;;
80227;SDS011;69539;42.138;24.742;2023-07-31T02:29:30;6.38;;;4.07;;
80227;SDS011;69539;42.138;24.742;2023-07-31T02:31:56;5.95;;;4.25;;
80227;SDS011;69539;42.138;24.742;2023-07-31T02:34:21;5.32;;;3.88;;
80227;SDS011;69539;42.138;24.742;2023-07-31T02:36:47;6.72;;;3.83;;
80227;SDS011;69539;42.138;24.742;2023-07-31T02:39:12;6.03;;;3.80;;
80227;SDS011;69539;42.138;24.742;2023-07-31T02:41:38;6.70;;;3.95;;
80227;SDS011;69539;42.138;24.742;2023-07-31T02:44:04;5.65;;;3.80;;
80227;SDS011;69539;42.138;24.742;2023-07-31T02:46:29;6.93;;;3.95;;
80227;SDS011;69539;42.138;24.742;2023-07-31T02:48:55;5.90;;;4.40;;
80227;SDS011;69539;42.138;24.742;2023-07-31T02:51:21;6.07;;;3.90;;
80227;SDS011;69539;42.138;24.742;2023-07-31T02:53:47;4.82;;;3.70;;
80227;SDS011;69539;42.138;24.742;2023-07-31T02:56:13;4.90;;;4.18;;
80227;SDS011;69539;42.138;24.742;2023-07-31T02:58:38;4.93;;;4.05;;
80227;SDS011;69539;42.138;24.742;2023-07-31T03:01:04;5.53;;;4.00;;
80227;SDS011;69539;42.138;24.742;2023-07-31T03:03:30;4.55;;;4.15;;
80227;SDS011;69539;42.138;24.742;2023-07-31T03:05:56;7.10;;;4.20;;
80227;SDS011;69539;42.138;24.742;2023-07-31T03:08:21;5.82;;;4.25;;
80227;SDS011;69539;42.138;24.742;2023-07-31T03:10:47;5.13;;;4.22;;
80227;SDS011;69539;42.138;24.742;2023-07-31T03:13:13;5.82;;;4.45;;
80227;SDS011;69539;42.138;24.742;2023-07-31T03:15:38;6.68;;;4.60;;
80227;SDS011;69539;42.138;24.742;2023-07-31T03:18:07;8.73;;;4.78;;
80227;SDS011;69539;42.138;24.742;2023-07-31T03:20:33;7.38;;;4.88;;
80227;SDS011;69539;42.138;24.742;2023-07-31T03:22:58;6.40;;;4.97;;
80227;SDS011;69539;42.138;24.742;2023-07-31T03:25:24;8.60;;;5.25;;
80227;SDS011;69539;42.138;24.742;2023-07-31T03:27:50;9.05;;;5.85;;
80227;SDS011;69539;42.138;24.742;2023-07-31T03:30:15;6.65;;;5.50;;
80227;SDS011;69539;42.138;24.742;2023-07-31T03:32:41;6.32;;;5.38;;
80227;SDS011;69539;42.138;24.742;2023-07-31T03:35:07;6.53;;;5.88;;
80227;SDS011;69539;42.138;24.742;2023-07-31T03:37:32;9.35;;;6.50;;
80227;SDS011;69539;42.138;24.742;2023-07-31T03:39:58;8.15;;;6.60;;
80227;SDS011;69539;42.138;24.742;2023-07-31T03:42:24;9.98;;;6.53;;
80227;SDS011;69539;42.138;24.742;2023-07-31T03:44:49;7.68;;;6.55;;
80227;SDS011;69539;42.138;24.742;2023-07-31T03:47:15;10.38;;;6.88;;
80227;SDS011;69539;42.138;24.742;2023-07-31T03:49:41;8.13;;;6.50;;
80227;SDS011;69539;42.138;24.742;2023-07-31T03:52:06;7.80;;;6.53;;
80227;SDS011;69539;42.138;24.742;2023-07-31T03:54:32;9.68;;;6.35;;
80227;SDS011;69539;42.138;24.742;2023-07-31T03:56:58;9.02;;;5.93;;
80227;SDS011;69539;42.138;24.742;2023-07-31T03:59:24;10.43;;;6.85;;
80227;SDS011;69539;42.138;24.742;2023-07-31T04:01:49;9.05;;;5.82;;
80227;SDS011;69539;42.138;24.742;2023-07-31T04:04:15;7.50;;;5.78;;
80227;SDS011;69539;42.138;24.742;2023-07-31T04:06:40;7.70;;;5.50;;
80227;SDS011;69539;42.138;24.742;2023-07-31T04:09:06;7.68;;;5.43;;
80227;SDS011;69539;42.138;24.742;2023-07-31T04:11:32;6.47;;;5.15;;
80227;SDS011;69539;42.138;24.742;2023-07-31T04:13:57;8.68;;;5.40;;
80227;SDS011;69539;42.138;24.742;2023-07-31T04:16:23;5.78;;;5.20;;
80227;SDS011;69539;42.138;24.742;2023-07-31T04:18:49;7.35;;;5.38;;
80227;SDS011;69539;42.138;24.742;2023-07-31T04:21:14;6.43;;;5.15;;
80227;SDS011;69539;42.138;24.742;2023-07-31T04:23:40;7.80;;;5.15;;
80227;SDS011;69539;42.138;24.742;2023-07-31T04:26:06;6.70;;;5.32;;
80227;SDS011;69539;42.138;24.742;2023-07-31T04:28:31;5.93;;;5.32;;
80227;SDS011;69539;42.138;24.742;2023-07-31T04:30:57;7.13;;;5.00;;
80227;SDS011;69539;42.138;24.742;2023-07-31T04:33:23;6.63;;;5.00;;
80227;SDS011;69539;42.138;24.742;2023-07-31T04:35:52;7.68;;;5.43;;
80227;SDS011;69539;42.138;24.742;2023-07-31T04:38:21;6.30;;;4.97;;
80227;SDS011;69539;42.138;24.742;2023-07-31T04:40:48;7.25;;;5.80;;
80227;SDS011;69539;42.138;24.742;2023-07-31T04:43:14;6.10;;;5.10;;
80227;SDS011;69539;42.138;24.742;2023-07-31T04:45:41;6.53;;;5.32;;
80227;SDS011;69539;42.138;24.742;2023-07-31T04:48:09;7.57;;;5.07;;
80227;SDS011;69539;42.138;24.742;2023-07-31T04:50:35;7.10;;;5.35;;
80227;SDS011;69539;42.138;24.742;2023-07-31T04:53:01;7.50;;;5.15;;
80227;SDS011;69539;42.138;24.742;2023-07-31T04:55:26;6.20;;;5.30;;
80227;SDS011;69539;42.138;24.742;2023-07-31T04:57:52;6.05;;;5.13;;
80227;SDS011;69539;42.138;24.742;2023-07-31T05:00:18;7.47;;;5.50;;
80227;SDS011;69539;42.138;24.742;2023-07-31T05:02:43;6.72;;;5.38;;
80227;SDS011;69539;42.138;24.742;2023-07-31T05:05:09;6.45;;;5.13;;
80227;SDS011;69539;42.138;24.742;2023-07-31T05:07:35;6.57;;;5.35;;
80227;SDS011;69539;42.138;24.742;2023-07-31T05:10:00;6.53;;;5.00;;
80227;SDS011;69539;42.138;24.742;2023-07-31T05:12:26;8.32;;;5.47;;
80227;SDS011;69539;42.138;24.742;2023-07-31T05:14:52;7.80;;;5.80;;
80227;SDS011;69539;42.138;24.742;2023-07-31T05:17:17;7.13;;;5.28;;
80227;SDS011;69539;42.138;24.742;2023-07-31T05:19:43;6.63;;;5.85;;
80227;SDS011;69539;42.138;24.742;2023-07-31T05:22:09;94.55;;;84.38;;
80227;SDS011;69539;42.138;24.742;2023-07-31T05:24:34;187.38;;;167.77;;
80227;SDS011;69539;42.138;24.742;2023-07-31T05:27:00;219.10;;;196.30;;
80227;SDS011;69539;42.138;24.742;2023-07-31T05:29:26;217.88;;;195.63;;
80227;SDS011;69539;42.138;24.742;2023-07-31T05:31:51;129.85;;;116.50;;
80227;SDS011;69539;42.138;24.742;2023-07-31T05:34:17;180.93;;;162.80;;
80227;SDS011;69539;42.138;24.742;2023-07-31T05:36:42;283.80;;;255.23;;
80227;SDS011;69539;42.138;24.742;2023-07-31T05:39:08;680.35;;;613.72;;
80227;SDS011;69539;42.138;24.742;2023-07-31T05:41:35;480.33;;;432.83;;
80227;SDS011;69539;42.138;24.742;2023-07-31T05:44:00;321.15;;;288.05;;
80227;SDS011;69539;42.138;24.742;2023-07-31T05:46:26;229.05;;;206.48;;
80227;SDS011;69539;42.138;24.742;2023-07-31T05:48:52;143.70;;;129.05;;
80227;SDS011;69539;42.138;24.742;2023-07-31T05:51:18;116.20;;;104.43;;
80227;SDS011;69539;42.138;24.742;2023-07-31T05:53:43;96.22;;;86.65;;
80227;SDS011;69539;42.138;24.742;2023-07-31T05:56:09;94.53;;;85.28;;
80227;SDS011;69539;42.138;24.742;2023-07-31T05:58:35;196.73;;;175.93;;
80227;SDS011;69539;42.138;24.742;2023-07-31T06:01:00;330.48;;;295.95;;
80227;SDS011;69539;42.138;24.742;2023-07-31T06:03:26;442.23;;;396.80;;
80227;SDS011;69539;42.138;24.742;2023-07-31T06:05:52;606.83;;;548.60;;
80227;SDS011;69539;42.138;24.742;2023-07-31T06:08:17;793.65;;;713.22;;
80227;SDS011;69539;42.138;24.742;2023-07-31T06:10:43;755.60;;;681.22;;
80227;SDS011;69539;42.138;24.742;2023-07-31T06:13:09;714.33;;;646.85;;
80227;SDS011;69539;42.138;24.742;2023-07-31T06:15:34;724.05;;;655.60;;
80227;SDS011;69539;42.138;24.742;2023-07-31T06:18:00;733.35;;;662.70;;
80227;SDS011;69539;42.138;24.742;2023-07-31T06:20:27;538.50;;;488.10;;
80227;SDS011;69539;42.138;24.742;2023-07-31T06:22:53;389.05;;;348.48;;
80227;SDS011;69539;42.138;24.742;2023-07-31T06:25:19;321.63;;;288.55;;
80227;SDS011;69539;42.138;24.742;2023-07-31T06:27:44;276.40;;;247.93;;
80227;SDS011;69539;42.138;24.742;2023-07-31T06:30:10;192.25;;;173.00;;
80227;SDS011;69539;42.138;24.742;2023-07-31T06:32:36;108.57;;;98.00;;
80227;SDS011;69539;42.138;24.742;2023-07-31T06:35:02;74.85;;;67.68;;
80227;SDS011;69539;42.138;24.742;2023-07-31T06:37:28;52.28;;;47.17;;
80227;SDS011;69539;42.138;24.742;2023-07-31T06:39:53;46.90;;;42.22;;
80227;SDS011;69539;42.138;24.742;2023-07-31T06:42:19;257.80;;;233.65;;
80227;SDS011;69539;42.138;24.742;2023-07-31T06:44:44;429.15;;;383.88;;
80227;SDS011;69539;42.138;24.742;2023-07-31T06:47:10;283.30;;;254.23;;
80227;SDS011;69539;42.138;24.742;2023-07-31T06:49:36;223.05;;;200.35;;
80227;SDS011;69539;42.138;24.742;2023-07-31T06:52:01;147.95;;;132.43;;
80227;SDS011;69539;42.138;24.742;2023-07-31T06:54:27;106.63;;;96.20;;
80227;SDS011;69539;42.138;24.742;2023-07-31T06:56:53;72.78;;;65.57;;
80227;SDS011;69539;42.138;24.742;2023-07-31T06:59:19;66.60;;;60.20;;
80227;SDS011;69539;42.138;24.742;2023-07-31T07:01:44;44.92;;;40.45;;
80227;SDS011;69539;42.138;24.742;2023-07-31T07:04:10;37.25;;;33.63;;
80227;SDS011;69539;42.138;24.742;2023-07-31T07:06:35;32.55;;;29.48;;
80227;SDS011;69539;42.138;24.742;2023-07-31T07:09:01;20.48;;;18.60;;
80227;SDS011;69539;42.138;24.742;2023-07-31T07:11:28;17.45;;;15.75;;
80227;SDS011;69539;42.138;24.742;2023-07-31T07:13:53;15.57;;;14.18;;
80227;SDS011;69539;42.138;24.742;2023-07-31T07:16:19;15.05;;;13.65;;
80227;SDS011;69539;42.138;24.742;2023-07-31T07:18:45;14.02;;;12.60;;
80227;SDS011;69539;42.138;24.742;2023-07-31T07:21:10;13.95;;;12.55;;
80227;SDS011;69539;42.138;24.742;2023-07-31T07:23:40;14.02;;;12.70;;
80227;SDS011;69539;42.138;24.742;2023-07-31T07:26:06;13.25;;;12.02;;
80227;SDS011;69539;42.138;24.742;2023-07-31T07:28:32;13.23;;;12.02;;
80227;SDS011;69539;42.138;24.742;2023-07-31T07:30:58;13.57;;;12.27;;
80227;SDS011;69539;42.138;24.742;2023-07-31T07:33:23;15.70;;;12.48;;
80227;SDS011;69539;42.138;24.742;2023-07-31T07:35:49;13.43;;;12.13;;
80227;SDS011;69539;42.138;24.742;2023-07-31T07:38:14;12.75;;;11.45;;
80227;SDS011;69539;42.138;24.742;2023-07-31T07:40:40;13.82;;;12.43;;
80227;SDS011;69539;42.138;24.742;2023-07-31T07:43:06;14.38;;;12.80;;
80227;SDS011;69539;42.138;24.742;2023-07-31T07:45:32;13.63;;;12.43;;
80227;SDS011;69539;42.138;24.742;2023-07-31T07:47:58;14.25;;;12.90;;
80227;SDS011;69539;42.138;24.742;2023-07-31T07:50:24;14.48;;;13.07;;
80227;SDS011;69539;42.138;24.742;2023-07-31T07:52:50;13.95;;;12.75;;
80227;SDS011;69539;42.138;24.742;2023-07-31T07:55:15;13.82;;;12.63;;
80227;SDS011;69539;42.138;24.742;2023-07-31T07:57:41;14.80;;;13.32;;
80227;SDS011;69539;42.138;24.742;2023-07-31T08:00:09;14.48;;;13.07;;
80227;SDS011;69539;42.138;24.742;2023-07-31T08:02:35;14.38;;;13.07;;
80227;SDS011;69539;42.138;24.742;2023-07-31T08:05:01;14.80;;;13.50;;
80227;SDS011;69539;42.138;24.742;2023-07-31T08:07:26;112.80;;;103.18;;
80227;SDS011;69539;42.138;24.742;2023-07-31T08:09:52;106.20;;;97.20;;
80227;SDS011;69539;42.138;24.742;2023-07-31T08:12:18;170.02;;;153.55;;
80227;SDS011;69539;42.138;24.742;2023-07-31T08:14:44;143.52;;;129.55;;
80227;SDS011;69539;42.138;24.742;2023-07-31T08:17:09;110.90;;;100.35;;
80227;SDS011;69539;42.138;24.742;2023-07-31T08:19:35;84.35;;;76.63;;
80227;SDS011;69539;42.138;24.742;2023-07-31T08:22:01;61.85;;;56.00;;
80227;SDS011;69539;42.138;24.742;2023-07-31T08:24:26;52.58;;;47.70;;
80227;SDS011;69539;42.138;24.742;2023-07-31T08:26:52;40.42;;;36.65;;
80227;SDS011;69539;42.138;24.742;2023-07-31T08:29:18;34.97;;;31.88;;
80227;SDS011;69539;42.138;24.742;2023-07-31T08:31:43;25.60;;;23.30;;
80227;SDS011;69539;42.138;24.742;2023-07-31T08:34:09;22.95;;;20.95;;
80227;SDS011;69539;42.138;24.742;2023-07-31T08:36:35;21.40;;;19.50;;
80227;SDS011;69539;42.138;24.742;2023-07-31T08:39:00;19.42;;;17.70;;
80227;SDS011;69539;42.138;24.742;2023-07-31T08:41:27;18.90;;;16.98;;
80227;SDS011;69539;42.138;24.742;2023-07-31T08:43:52;17.90;;;16.20;;
80227;SDS011;69539;42.138;24.742;2023-07-31T08:46:20;17.13;;;15.40;;
80227;SDS011;69539;42.138;24.742;2023-07-31T08:48:46;15.60;;;14.10;;
80227;SDS011;69539;42.138;24.742;2023-07-31T08:51:13;15.75;;;14.35;;
80227;SDS011;69539;42.138;24.742;2023-07-31T08:53:40;14.82;;;13.50;;
80227;SDS011;69539;42.138;24.742;2023-07-31T08:56:06;15.20;;;13.82;;
80227;SDS011;69539;42.138;24.742;2023-07-31T08:58:33;14.13;;;12.93;;
80227;SDS011;69539;42.138;24.742;2023-07-31T09:01:03;14.50;;;13.20;;
80227;SDS011;69539;42.138;24.742;2023-07-31T09:03:31;14.55;;;13.25;;
80227;SDS011;69539;42.138;24.742;2023-07-31T09:06:00;14.40;;;13.00;;
80227;SDS011;69539;42.138;24.742;2023-07-31T09:08:29;13.85;;;12.65;;
80227;SDS011;69539;42.138;24.742;2023-07-31T09:10:58;14.35;;;13.05;;
80227;SDS011;69539;42.138;24.742;2023-07-31T09:13:30;14.00;;;12.90;;
80227;SDS011;69539;42.138;24.742;2023-07-31T09:15:57;13.30;;;12.10;;
80227;SDS011;69539;42.138;24.742;2023-07-31T09:18:22;13.77;;;12.48;;
80227;SDS011;69539;42.138;24.742;2023-07-31T09:21:09;13.10;;;11.88;;
80227;SDS011;69539;42.138;24.742;2023-07-31T09:23:46;13.43;;;12.03;;
80227;SDS011;69539;42.138;24.742;2023-07-31T09:26:32;13.23;;;12.05;;
80227;SDS011;69539;42.138;24.742;2023-07-31T09:28:59;13.80;;;12.60;;
80227;SDS011;69539;42.138;24.742;2023-07-31T09:34:18;13.70;;;12.50;;
80227;SDS011;69539;42.138;24.742;2023-07-31T09:36:48;14.00;;;12.80;;
80227;SDS011;69539;42.138;24.742;2023-07-31T09:39:16;13.77;;;12.48;;
80227;SDS011;69539;42.138;24.742;2023-07-31T09:41:43;13.98;;;12.77;;
80227;SDS011;69539;42.138;24.742;2023-07-31T09:44:12;32.72;;;30.00;;
80227;SDS011;69539;42.138;24.742;2023-07-31T09:46:37;261.77;;;238.98;;
80227;SDS011;69539;42.138;24.742;2023-07-31T09:49:13;310.30;;;282.92;;
80227;SDS011;69539;42.138;24.742;2023-07-31T09:51:39;384.88;;;350.85;;
80227;SDS011;69539;42.138;24.742;2023-07-31T09:56:45;571.33;;;521.97;;
80227;SDS011;69539;42.138;24.742;2023-07-31T09:59:14;644.33;;;589.28;;
80227;SDS011;69539;42.138;24.742;2023-07-31T10:01:41;586.75;;;536.45;;
80227;SDS011;69539;42.138;24.742;2023-07-31T10:06:35;268.92;;;245.25;;
80227;SDS011;69539;42.138;24.742;2023-07-31T10:09:02;312.27;;;283.63;;
80227;SDS011;69539;42.138;24.742;2023-07-31T10:11:41;497.00;;;450.08;;
80227;SDS011;69539;42.138;24.742;2023-07-31T10:14:10;320.90;;;290.00;;
80227;SDS011;69539;42.138;24.742;2023-07-31T10:16:37;222.23;;;201.60;;
80227;SDS011;69539;42.138;24.742;2023-07-31T10:19:04;265.88;;;241.43;;
80227;SDS011;69539;42.138;24.742;2023-07-31T10:21:31;673.75;;;613.75;;
80227;SDS011;69539;42.138;24.742;2023-07-31T10:24:01;604.92;;;552.63;;
80227;SDS011;69539;42.138;24.742;2023-07-31T10:26:29;381.98;;;345.77;;
80227;SDS011;69539;42.138;24.742;2023-07-31T10:31:22;224.15;;;204.02;;
80227;SDS011;69539;42.138;24.742;2023-07-31T10:33:50;119.60;;;108.95;;
80227;SDS011;69539;42.138;24.742;2023-07-31T10:36:19;79.10;;;72.15;;
80227;SDS011;69539;42.138;24.742;2023-07-31T10:38:46;48.78;;;44.38;;
80227;SDS011;69539;42.138;24.742;2023-07-31T10:41:14;36.03;;;32.90;;
80227;SDS011;69539;42.138;24.742;2023-07-31T10:43:39;33.80;;;30.80;;
80227;SDS011;69539;42.138;24.742;2023-07-31T10:46:09;26.75;;;24.40;;
80227;SDS011;69539;42.138;24.742;2023-07-31T10:48:38;21.38;;;19.48;;
80227;SDS011;69539;42.138;24.742;2023-07-31T10:51:07;17.88;;;16.27;;
80227;SDS011;69539;42.138;24.742;2023-07-31T10:53:35;17.20;;;15.70;;
80227;SDS011;69539;42.138;24.742;2023-07-31T10:56:04;15.93;;;14.43;;
80227;SDS011;69539;42.138;24.742;2023-07-31T10:58:32;14.32;;;13.02;;
80227;SDS011;69539;42.138;24.742;2023-07-31T11:00:58;11.77;;;10.77;;
80227;SDS011;69539;42.138;24.742;2023-07-31T11:03:26;13.20;;;12.00;;
80227;SDS011;69539;42.138;24.742;2023-07-31T11:06:05;11.48;;;10.48;;
80227;SDS011;69539;42.138;24.742;2023-07-31T11:08:32;11.18;;;10.18;;
80227;SDS011;69539;42.138;24.742;2023-07-31T11:13:32;11.13;;;10.07;;
80227;SDS011;69539;42.138;24.742;2023-07-31T11:15:59;10.63;;;9.63;;
80227;SDS011;69539;42.138;24.742;2023-07-31T11:18:25;11.75;;;9.75;;
80227;SDS011;69539;42.138;24.742;2023-07-31T11:20:52;10.23;;;9.23;;
80227;SDS011;69539;42.138;24.742;2023-07-31T11:23:19;9.85;;;8.48;;
80227;SDS011;69539;42.138;24.742;2023-07-31T11:25:45;10.13;;;9.13;;
80227;SDS011;69539;42.138;24.742;2023-07-31T11:28:12;9.65;;;8.40;;
80227;SDS011;69539;42.138;24.742;2023-07-31T11:30:39;8.88;;;8.00;;
80227;SDS011;69539;42.138;24.742;2023-07-31T11:33:06;8.98;;;8.07;;
80227;SDS011;69539;42.138;24.742;2023-07-31T11:35:34;9.20;;;8.30;;
80227;SDS011;69539;42.138;24.742;2023-07-31T11:38:01;9.95;;;8.95;;
80227;SDS011;69539;42.138;24.742;2023-07-31T11:40:28;10.20;;;9.00;;
80227;SDS011;69539;42.138;24.742;2023-07-31T11:42:57;9.23;;;8.40;;
80227;SDS011;69539;42.138;24.742;2023-07-31T11:45:24;8.95;;;8.05;;
80227;SDS011;69539;42.138;24.742;2023-07-31T11:47:53;9.88;;;8.85;;
80227;SDS011;69539;42.138;24.742;2023-07-31T11:50:20;9.02;;;8.23;;
80227;SDS011;69539;42.138;24.742;2023-07-31T11:52:46;9.00;;;8.20;;
80227;SDS011;69539;42.138;24.742;2023-07-31T11:55:14;9.30;;;8.50;;
80227;SDS011;69539;42.138;24.742;2023-07-31T11:57:41;9.70;;;8.85;;
80227;SDS011;69539;42.138;24.742;2023-07-31T12:00:09;9.75;;;8.88;;
80227;SDS011;69539;42.138;24.742;2023-07-31T12:02:38;9.80;;;8.75;;
80227;SDS011;69539;42.138;24.742;2023-07-31T12:05:05;9.00;;;8.20;;
80227;SDS011;69539;42.138;24.742;2023-07-31T12:10:10;8.85;;;8.00;;
80227;SDS011;69539;42.138;24.742;2023-07-31T12:12:54;8.68;;;7.88;;
80227;SDS011;69539;42.138;24.742;2023-07-31T12:15:38;9.07;;;8.25;;
80227;SDS011;69539;42.138;24.742;2023-07-31T12:18:15;9.70;;;8.80;;
80227;SDS011;69539;42.138;24.742;2023-07-31T12:20:47;9.60;;;8.70;;
80227;SDS011;69539;42.138;24.742;2023-07-31T12:23:21;10.32;;;9.23;;
80227;SDS011;69539;42.138;24.742;2023-07-31T12:28:42;10.27;;;9.38;;
80227;SDS011;69539;42.138;24.742;2023-07-31T12:31:09;9.43;;;8.63;;
80227;SDS011;69539;42.138;24.742;2023-07-31T12:33:37;9.52;;;8.68;;
80227;SDS011;69539;42.138;24.742;2023-07-31T12:36:06;9.30;;;8.50;;
80227;SDS011;69539;42.138;24.742;2023-07-31T12:38:39;9.68;;;8.77;;
80227;SDS011;69539;42.138;24.742;2023-07-31T12:41:06;9.10;;;8.30;;
80227;SDS011;69539;42.138;24.742;2023-07-31T12:43:32;69.22;;;63.35;;
80227;SDS011;69539;42.138;24.742;2023-07-31T12:45:59;193.00;;;175.50;;
80227;SDS011;69539;42.138;24.742;2023-07-31T12:48:24;370.88;;;335.73;;
80227;SDS011;69539;42.138;24.742;2023-07-31T12:50:50;307.85;;;279.88;;
80227;SDS011;69539;42.138;24.742;2023-07-31T12:53:16;247.60;;;225.77;;
80227;SDS011;69539;42.138;24.742;2023-07-31T12:55:41;315.23;;;285.73;;
80227;SDS011;69539;42.138;24.742;2023-07-31T12:58:07;524.03;;;475.50;;
80227;SDS011;69539;42.138;24.742;2023-07-31T13:00:33;380.02;;;343.33;;
80227;SDS011;69539;42.138;24.742;2023-07-31T13:02:59;285.88;;;259.20;;
80227;SDS011;69539;42.138;24.742;2023-07-31T13:05:25;235.73;;;214.00;;
80227;SDS011;69539;42.138;24.742;2023-07-31T13:07:51;124.65;;;113.32;;
80227;SDS011;69539;42.138;24.742;2023-07-31T13:10:17;63.83;;;57.95;;
80227;SDS011;69539;42.138;24.742;2023-07-31T13:12:43;36.22;;;33.00;;
80227;SDS011;69539;42.138;24.742;2023-07-31T13:15:08;22.70;;;20.73;;
80227;SDS011;69539;42.138;24.742;2023-07-31T13:17:35;18.65;;;16.95;;
80227;SDS011;69539;42.138;24.742;2023-07-31T13:20:01;34.73;;;31.70;;
80227;SDS011;69539;42.138;24.742;2023-07-31T13:22:28;65.50;;;59.95;;
80227;SDS011;69539;42.138;24.742;2023-07-31T13:24:54;57.85;;;52.65;;
80227;SDS011;69539;42.138;24.742;2023-07-31T13:27:19;134.00;;;121.57;;
80227;SDS011;69539;42.138;24.742;2023-07-31T13:29:47;241.70;;;218.45;;
80227;SDS011;69539;42.138;24.742;2023-07-31T13:32:16;101.75;;;92.53;;
80227;SDS011;69539;42.138;24.742;2023-07-31T13:34:43;67.35;;;61.25;;
80227;SDS011;69539;42.138;24.742;2023-07-31T13:37:09;124.13;;;111.93;;
80227;SDS011;69539;42.138;24.742;2023-07-31T13:39:35;57.72;;;52.05;;
80227;SDS011;69539;42.138;24.742;2023-07-31T13:42:04;25.13;;;22.88;;
80227;SDS011;69539;42.138;24.742;2023-07-31T13:44:37;16.73;;;15.18;;
80227;SDS011;69539;42.138;24.742;2023-07-31T13:47:03;10.65;;;9.75;;
80227;SDS011;69539;42.138;24.742;2023-07-31T13:49:29;9.65;;;8.75;;
80227;SDS011;69539;42.138;24.742;2023-07-31T13:51:55;9.18;;;8.30;;
80227;SDS011;69539;42.138;24.742;2023-07-31T13:54:21;9.00;;;8.20;;
80227;SDS011;69539;42.138;24.742;2023-07-31T13:56:48;8.70;;;7.90;;
80227;SDS011;69539;42.138;24.742;2023-07-31T13:59:13;8.73;;;7.97;;
80227;SDS011;69539;42.138;24.742;2023-07-31T14:01:41;8.73;;;7.93;;
80227;SDS011;69539;42.138;24.742;2023-07-31T14:04:07;8.73;;;7.88;;
80227;SDS011;69539;42.138;24.742;2023-07-31T14:06:32;7.95;;;7.20;;
80227;SDS011;69539;42.138;24.742;2023-07-31T14:08:58;8.10;;;7.30;;
80227;SDS011;69539;42.138;24.742;2023-07-31T14:11:24;7.82;;;7.05;;
80227;SDS011;69539;42.138;24.742;2023-07-31T14:13:50;8.10;;;7.30;;
80227;SDS011;69539;42.138;24.742;2023-07-31T14:16:16;7.80;;;7.00;;
80227;SDS011;69539;42.138;24.742;2023-07-31T14:18:42;8.20;;;7.40;;
80227;SDS011;69539;42.138;24.742;2023-07-31T14:21:08;7.80;;;7.10;;
80227;SDS011;69539;42.138;24.742;2023-07-31T14:23:34;7.95;;;7.15;;
80227;SDS011;69539;42.138;24.742;2023-07-31T14:26:00;7.90;;;7.20;;
80227;SDS011;69539;42.138;24.742;2023-07-31T14:28:25;8.70;;;7.82;;
80227;SDS011;69539;42.138;24.742;2023-07-31T14:30:51;7.93;;;7.20;;
80227;SDS011;69539;42.138;24.742;2023-07-31T14:33:17;8.23;;;7.43;;
80227;SDS011;69539;42.138;24.742;2023-07-31T14:35:42;80.10;;;73.38;;
80227;SDS011;69539;42.138;24.742;2023-07-31T14:38:08;65.57;;;59.63;;
80227;SDS011;69539;42.138;24.742;2023-07-31T14:40:34;82.00;;;74.10;;
80227;SDS011;69539;42.138;24.742;2023-07-31T14:42:59;41.30;;;37.28;;